sensor_id;sensor_type;location;lat;lon;timestamp;temperature;humidity
16663;DHT22;8445;51.270;9.434;2023-10-19T00:00:54;9.60;71.00
16663;DHT22;8445;51.270;9.434;2023-10-19T00:03:25;9.60;71.00
16663;DHT22;8445;51.270;9.434;2023-10-19T00:05:56;9.60;71.10
16663;DHT22;8445;51.270;9.434;2023-10-19T00:08:22;9.60;71.20
16663;DHT22;8445;51.270;9.434;2023-10-19T00:10:51;9.50;71.20
16663;DHT22;8445;51.270;9.434;2023-10-19T00:13:31;9.50;71.40
16663;DHT22;8445;51.270;9.434;2023-10-19T00:15:57;9.50;71.30
16663;DHT22;8445;51.270;9.434;2023-10-19T00:18:24;9.50;71.50
16663;DHT22;8445;51.270;9.434;2023-10-19T00:20:53;9.50;71.90
16663;DHT22;8445;51.270;9.434;2023-10-19T00:23:26;9.40;72.20
16663;DHT22;8445;51.270;9.434;2023-10-19T00:26:01;9.40;71.90
16663;DHT22;8445;51.270;9.434;2023-10-19T00:28:35;9.40;72.20
16663;DHT22;8445;51.270;9.434;2023-10-19T00:31:02;9.40;72.20
16663;DHT22;8445;51.270;9.434;2023-10-19T00:33:35;9.40;72.30
16663;DHT22;8445;51.270;9.434;2023-10-19T00:36:06;9.40;72.80
16663;DHT22;8445;51.270;9.434;2023-10-19T00:38:39;9.40;72.60
16663;DHT22;8445;51.270;9.434;2023-10-19T00:41:16;9.40;72.80
16663;DHT22;8445;51.270;9.434;2023-10-19T00:43:54;9.40;72.80
16663;DHT22;8445;51.270;9.434;2023-10-19T00:46:36;9.40;73.00
16663;DHT22;8445;51.270;9.434;2023-10-19T00:49:13;9.40;73.00
16663;DHT22;8445;51.270;9.434;2023-10-19T00:51:52;9.40;73.20
16663;DHT22;8445;51.270;9.434;2023-10-19T00:54:38;9.40;73.30
16663;DHT22;8445;51.270;9.434;2023-10-19T00:57:15;9.40;73.90
16663;DHT22;8445;51.270;9.434;2023-10-19T00:59:46;9.40;73.70
16663;DHT22;8445;51.270;9.434;2023-10-19T01:02:20;9.40;73.80
16663;DHT22;8445;51.270;9.434;2023-10-19T01:04:54;9.40;74.20
16663;DHT22;8445;51.270;9.434;2023-10-19T01:07:27;9.30;74.50
16663;DHT22;8445;51.270;9.434;2023-10-19T01:09:56;9.20;74.20
16663;DHT22;8445;51.270;9.434;2023-10-19T01:12:25;9.20;74.30
16663;DHT22;8445;51.270;9.434;2023-10-19T01:17:40;9.20;74.80
16663;DHT22;8445;51.270;9.434;2023-10-19T01:20:14;9.20;75.10
16663;DHT22;8445;51.270;9.434;2023-10-19T01:23:05;9.20;74.90
16663;DHT22;8445;51.270;9.434;2023-10-19T01:25:48;9.20;74.90
16663;DHT22;8445;51.270;9.434;2023-10-19T01:28:23;9.10;75.10
16663;DHT22;8445;51.270;9.434;2023-10-19T01:30:52;9.10;75.40
16663;DHT22;8445;51.270;9.434;2023-10-19T01:33:18;9.10;75.40
16663;DHT22;8445;51.270;9.434;2023-10-19T01:35:44;9.10;75.40
16663;DHT22;8445;51.270;9.434;2023-10-19T01:38:30;9.10;75.30
16663;DHT22;8445;51.270;9.434;2023-10-19T01:41:00;9.00;75.50
16663;DHT22;8445;51.270;9.434;2023-10-19T01:43:27;9.00;75.60
16663;DHT22;8445;51.270;9.434;2023-10-19T01:46:00;9.00;75.50
16663;DHT22;8445;51.270;9.434;2023-10-19T01:48:31;9.00;75.50
16663;DHT22;8445;51.270;9.434;2023-10-19T01:51:05;9.00;75.80
16663;DHT22;8445;51.270;9.434;2023-10-19T01:53:32;9.00;76.20
16663;DHT22;8445;51.270;9.434;2023-10-19T01:55:59;9.10;76.10
16663;DHT22;8445;51.270;9.434;2023-10-19T01:58:25;9.10;76.40
16663;DHT22;8445;51.270;9.434;2023-10-19T02:00:53;9.10;76.50
16663;DHT22;8445;51.270;9.434;2023-10-19T02:03:26;9.10;76.70
16663;DHT22;8445;51.270;9.434;2023-10-19T02:06:03;9.10;76.70
16663;DHT22;8445;51.270;9.434;2023-10-19T02:08:54;9.10;76.60
16663;DHT22;8445;51.270;9.434;2023-10-19T02:11:48;9.10;76.50
16663;DHT22;8445;51.270;9.434;2023-10-19T02:14:19;9.10;76.90
16663;DHT22;8445;51.270;9.434;2023-10-19T02:16:54;9.10;77.10
16663;DHT22;8445;51.270;9.434;2023-10-19T02:19:28;9.10;77.00
16663;DHT22;8445;51.270;9.434;2023-10-19T02:22:03;9.00;77.40
16663;DHT22;8445;51.270;9.434;2023-10-19T02:24:30;9.10;77.40
16663;DHT22;8445;51.270;9.434;2023-10-19T02:26:57;9.00;77.40
16663;DHT22;8445;51.270;9.434;2023-10-19T02:29:23;9.00;77.30
16663;DHT22;8445;51.270;9.434;2023-10-19T02:31:51;9.00;77.40
16663;DHT22;8445;51.270;9.434;2023-10-19T02:34:18;9.00;77.30
16663;DHT22;8445;51.270;9.434;2023-10-19T02:36:46;9.00;77.50
16663;DHT22;8445;51.270;9.434;2023-10-19T02:39:14;9.00;77.50
16663;DHT22;8445;51.270;9.434;2023-10-19T02:41:47;9.00;77.50
16663;DHT22;8445;51.270;9.434;2023-10-19T02:44:16;9.00;77.70
16663;DHT22;8445;51.270;9.434;2023-10-19T02:46:47;9.00;77.60
16663;DHT22;8445;51.270;9.434;2023-10-19T02:49:16;9.00;77.70
16663;DHT22;8445;51.270;9.434;2023-10-19T02:51:50;9.00;77.70
16663;DHT22;8445;51.270;9.434;2023-10-19T02:54:18;9.00;77.70
16663;DHT22;8445;51.270;9.434;2023-10-19T02:56:49;9.10;77.80
16663;DHT22;8445;51.270;9.434;2023-10-19T02:59:21;9.10;77.90
16663;DHT22;8445;51.270;9.434;2023-10-19T03:01:49;9.10;78.00
16663;DHT22;8445;51.270;9.434;2023-10-19T03:04:27;9.10;77.80
16663;DHT22;8445;51.270;9.434;2023-10-19T03:06:56;9.10;77.80
16663;DHT22;8445;51.270;9.434;2023-10-19T03:09:23;9.20;77.90
16663;DHT22;8445;51.270;9.434;2023-10-19T03:11:57;9.20;77.90
16663;DHT22;8445;51.270;9.434;2023-10-19T03:14:33;9.20;78.00
16663;DHT22;8445;51.270;9.434;2023-10-19T03:17:00;9.20;78.20
16663;DHT22;8445;51.270;9.434;2023-10-19T03:19:26;9.20;78.30
16663;DHT22;8445;51.270;9.434;2023-10-19T03:21:53;9.20;78.20
16663;DHT22;8445;51.270;9.434;2023-10-19T03:24:21;9.20;78.40
16663;DHT22;8445;51.270;9.434;2023-10-19T03:27:13;9.20;78.40
16663;DHT22;8445;51.270;9.434;2023-10-19T03:29:44;9.20;78.70
16663;DHT22;8445;51.270;9.434;2023-10-19T03:32:12;9.20;78.60
16663;DHT22;8445;51.270;9.434;2023-10-19T03:34:39;9.20;78.70
16663;DHT22;8445;51.270;9.434;2023-10-19T03:37:08;9.20;78.90
16663;DHT22;8445;51.270;9.434;2023-10-19T03:39:38;9.20;78.90
16663;DHT22;8445;51.270;9.434;2023-10-19T03:42:05;9.20;78.90
16663;DHT22;8445;51.270;9.434;2023-10-19T03:44:33;9.20;78.90
16663;DHT22;8445;51.270;9.434;2023-10-19T03:47:19;9.20;79.00
16663;DHT22;8445;51.270;9.434;2023-10-19T03:49:47;9.20;79.00
16663;DHT22;8445;51.270;9.434;2023-10-19T03:52:14;9.20;79.10
16663;DHT22;8445;51.270;9.434;2023-10-19T03:54:40;9.20;79.10
16663;DHT22;8445;51.270;9.434;2023-10-19T03:57:08;9.20;79.20
16663;DHT22;8445;51.270;9.434;2023-10-19T03:59:45;9.20;79.20
16663;DHT22;8445;51.270;9.434;2023-10-19T04:02:12;9.20;79.20
16663;DHT22;8445;51.270;9.434;2023-10-19T04:04:43;9.30;79.30
16663;DHT22;8445;51.270;9.434;2023-10-19T04:07:16;9.30;79.50
16663;DHT22;8445;51.270;9.434;2023-10-19T04:09:54;9.30;79.40
16663;DHT22;8445;51.270;9.434;2023-10-19T04:12:24;9.30;79.40
16663;DHT22;8445;51.270;9.434;2023-10-19T04:14:57;9.30;79.50
16663;DHT22;8445;51.270;9.434;2023-10-19T04:17:30;9.30;79.60
16663;DHT22;8445;51.270;9.434;2023-10-19T04:19:56;9.40;79.90
16663;DHT22;8445;51.270;9.434;2023-10-19T04:22:22;9.40;79.90
16663;DHT22;8445;51.270;9.434;2023-10-19T04:24:50;9.40;80.00
16663;DHT22;8445;51.270;9.434;2023-10-19T04:27:16;9.40;80.20
16663;DHT22;8445;51.270;9.434;2023-10-19T04:29:42;9.40;80.20
16663;DHT22;8445;51.270;9.434;2023-10-19T04:32:11;9.40;80.30
16663;DHT22;8445;51.270;9.434;2023-10-19T04:34:40;9.40;80.30
16663;DHT22;8445;51.270;9.434;2023-10-19T04:37:06;9.40;80.40
16663;DHT22;8445;51.270;9.434;2023-10-19T04:39:32;9.40;80.40
16663;DHT22;8445;51.270;9.434;2023-10-19T04:42:00;9.40;80.30
16663;DHT22;8445;51.270;9.434;2023-10-19T04:44:26;9.40;80.30
16663;DHT22;8445;51.270;9.434;2023-10-19T04:46:52;9.40;80.20
16663;DHT22;8445;51.270;9.434;2023-10-19T04:49:18;9.50;80.30
16663;DHT22;8445;51.270;9.434;2023-10-19T04:51:44;9.50;80.20
16663;DHT22;8445;51.270;9.434;2023-10-19T04:54:10;9.50;80.30
16663;DHT22;8445;51.270;9.434;2023-10-19T04:56:36;9.50;80.20
16663;DHT22;8445;51.270;9.434;2023-10-19T04:59:03;9.50;80.20
16663;DHT22;8445;51.270;9.434;2023-10-19T05:01:29;9.60;80.10
16663;DHT22;8445;51.270;9.434;2023-10-19T05:03:55;9.60;80.30
16663;DHT22;8445;51.270;9.434;2023-10-19T05:06:21;9.60;80.20
16663;DHT22;8445;51.270;9.434;2023-10-19T05:08:48;9.70;80.10
16663;DHT22;8445;51.270;9.434;2023-10-19T05:11:14;9.70;80.10
16663;DHT22;8445;51.270;9.434;2023-10-19T05:13:40;9.70;80.30
16663;DHT22;8445;51.270;9.434;2023-10-19T05:16:06;9.80;80.30
16663;DHT22;8445;51.270;9.434;2023-10-19T05:18:32;9.80;80.30
16663;DHT22;8445;51.270;9.434;2023-10-19T05:20:59;9.80;80.10
16663;DHT22;8445;51.270;9.434;2023-10-19T05:23:27;9.80;80.20
16663;DHT22;8445;51.270;9.434;2023-10-19T05:26:19;9.80;80.10
16663;DHT22;8445;51.270;9.434;2023-10-19T05:28:46;9.90;80.10
16663;DHT22;8445;51.270;9.434;2023-10-19T05:31:13;10.00;80.00
16663;DHT22;8445;51.270;9.434;2023-10-19T05:33:40;10.00;80.00
16663;DHT22;8445;51.270;9.434;2023-10-19T05:36:06;10.00;80.00
16663;DHT22;8445;51.270;9.434;2023-10-19T05:38:33;10.00;80.00
16663;DHT22;8445;51.270;9.434;2023-10-19T05:41:00;10.00;79.90
16663;DHT22;8445;51.270;9.434;2023-10-19T05:43:26;10.00;80.00
16663;DHT22;8445;51.270;9.434;2023-10-19T05:45:53;10.10;79.90
16663;DHT22;8445;51.270;9.434;2023-10-19T05:48:21;10.10;80.00
16663;DHT22;8445;51.270;9.434;2023-10-19T05:50:49;10.10;80.00
16663;DHT22;8445;51.270;9.434;2023-10-19T05:53:15;10.20;79.90
16663;DHT22;8445;51.270;9.434;2023-10-19T05:55:46;10.20;80.00
16663;DHT22;8445;51.270;9.434;2023-10-19T05:58:12;10.20;80.00
16663;DHT22;8445;51.270;9.434;2023-10-19T06:00:40;10.20;80.00
16663;DHT22;8445;51.270;9.434;2023-10-19T06:03:07;10.30;80.00
16663;DHT22;8445;51.270;9.434;2023-10-19T06:05:33;10.30;80.10
16663;DHT22;8445;51.270;9.434;2023-10-19T06:07:59;10.30;80.10
16663;DHT22;8445;51.270;9.434;2023-10-19T06:10:27;10.30;80.30
16663;DHT22;8445;51.270;9.434;2023-10-19T06:12:54;10.30;80.40
16663;DHT22;8445;51.270;9.434;2023-10-19T06:15:21;10.30;80.40
16663;DHT22;8445;51.270;9.434;2023-10-19T06:17:50;10.40;80.40
16663;DHT22;8445;51.270;9.434;2023-10-19T06:20:19;10.40;80.40
16663;DHT22;8445;51.270;9.434;2023-10-19T06:22:52;10.40;80.50
16663;DHT22;8445;51.270;9.434;2023-10-19T06:25:25;10.40;80.50
16663;DHT22;8445;51.270;9.434;2023-10-19T06:27:51;10.40;80.50
16663;DHT22;8445;51.270;9.434;2023-10-19T06:30:19;10.50;80.80
16663;DHT22;8445;51.270;9.434;2023-10-19T06:32:50;10.50;80.80
16663;DHT22;8445;51.270;9.434;2023-10-19T06:35:18;10.40;80.80
16663;DHT22;8445;51.270;9.434;2023-10-19T06:37:45;10.50;81.00
16663;DHT22;8445;51.270;9.434;2023-10-19T06:40:14;10.50;80.90
16663;DHT22;8445;51.270;9.434;2023-10-19T06:42:41;10.50;80.80
16663;DHT22;8445;51.270;9.434;2023-10-19T06:45:11;10.50;80.90
16663;DHT22;8445;51.270;9.434;2023-10-19T06:47:46;10.60;81.00
16663;DHT22;8445;51.270;9.434;2023-10-19T06:50:14;10.60;80.90
16663;DHT22;8445;51.270;9.434;2023-10-19T06:52:43;10.60;80.80
16663;DHT22;8445;51.270;9.434;2023-10-19T06:55:11;10.70;80.90
16663;DHT22;8445;51.270;9.434;2023-10-19T06:57:49;10.70;80.80
16663;DHT22;8445;51.270;9.434;2023-10-19T07:00:20;10.70;80.90
16663;DHT22;8445;51.270;9.434;2023-10-19T07:02:51;10.80;80.90
16663;DHT22;8445;51.270;9.434;2023-10-19T07:05:19;10.80;80.90
16663;DHT22;8445;51.270;9.434;2023-10-19T07:07:53;10.90;80.90
16663;DHT22;8445;51.270;9.434;2023-10-19T07:10:20;10.90;80.80
16663;DHT22;8445;51.270;9.434;2023-10-19T07:12:52;10.90;80.80
16663;DHT22;8445;51.270;9.434;2023-10-19T07:15:22;11.00;80.70
16663;DHT22;8445;51.270;9.434;2023-10-19T07:17:51;11.00;80.60
16663;DHT22;8445;51.270;9.434;2023-10-19T07:20:20;11.10;80.50
16663;DHT22;8445;51.270;9.434;2023-10-19T07:22:59;11.10;80.50
16663;DHT22;8445;51.270;9.434;2023-10-19T07:25:36;11.10;80.50
16663;DHT22;8445;51.270;9.434;2023-10-19T07:28:14;11.20;80.60
16663;DHT22;8445;51.270;9.434;2023-10-19T07:30:42;11.30;80.60
16663;DHT22;8445;51.270;9.434;2023-10-19T07:33:10;11.40;80.60
16663;DHT22;8445;51.270;9.434;2023-10-19T07:35:43;11.50;80.60
16663;DHT22;8445;51.270;9.434;2023-10-19T07:38:15;11.50;80.60
16663;DHT22;8445;51.270;9.434;2023-10-19T07:40:43;11.60;80.50
16663;DHT22;8445;51.270;9.434;2023-10-19T07:43:09;11.70;80.50
16663;DHT22;8445;51.270;9.434;2023-10-19T07:45:35;11.70;80.50
16663;DHT22;8445;51.270;9.434;2023-10-19T07:48:03;11.90;80.50
16663;DHT22;8445;51.270;9.434;2023-10-19T07:50:33;11.90;80.60
16663;DHT22;8445;51.270;9.434;2023-10-19T07:53:00;11.90;80.50
16663;DHT22;8445;51.270;9.434;2023-10-19T07:55:26;12.00;80.60
16663;DHT22;8445;51.270;9.434;2023-10-19T07:57:53;12.00;80.70
16663;DHT22;8445;51.270;9.434;2023-10-19T08:00:20;12.10;80.70
16663;DHT22;8445;51.270;9.434;2023-10-19T08:02:47;12.10;80.70
16663;DHT22;8445;51.270;9.434;2023-10-19T08:05:16;12.10;80.70
16663;DHT22;8445;51.270;9.434;2023-10-19T08:07:45;12.20;80.70
16663;DHT22;8445;51.270;9.434;2023-10-19T08:10:18;12.30;80.70
16663;DHT22;8445;51.270;9.434;2023-10-19T08:12:46;12.30;80.70
16663;DHT22;8445;51.270;9.434;2023-10-19T08:15:14;12.30;80.60
16663;DHT22;8445;51.270;9.434;2023-10-19T08:17:47;12.40;80.50
16663;DHT22;8445;51.270;9.434;2023-10-19T08:20:15;12.50;80.50
16663;DHT22;8445;51.270;9.434;2023-10-19T08:22:54;12.50;80.50
16663;DHT22;8445;51.270;9.434;2023-10-19T08:25:22;12.50;80.40
16663;DHT22;8445;51.270;9.434;2023-10-19T08:27:49;12.50;80.60
16663;DHT22;8445;51.270;9.434;2023-10-19T08:30:21;12.50;80.50
16663;DHT22;8445;51.270;9.434;2023-10-19T08:32:47;12.60;80.50
16663;DHT22;8445;51.270;9.434;2023-10-19T08:35:15;12.70;80.50
16663;DHT22;8445;51.270;9.434;2023-10-19T08:37:43;12.80;80.50
16663;DHT22;8445;51.270;9.434;2023-10-19T08:40:11;12.90;80.40
16663;DHT22;8445;51.270;9.434;2023-10-19T08:42:41;13.00;80.40
16663;DHT22;8445;51.270;9.434;2023-10-19T08:45:09;13.00;80.20
16663;DHT22;8445;51.270;9.434;2023-10-19T08:47:44;13.00;80.00
16663;DHT22;8445;51.270;9.434;2023-10-19T08:50:31;13.10;79.90
16663;DHT22;8445;51.270;9.434;2023-10-19T08:53:02;13.10;79.80
16663;DHT22;8445;51.270;9.434;2023-10-19T08:55:29;13.10;79.70
16663;DHT22;8445;51.270;9.434;2023-10-19T08:57:56;13.10;79.80
16663;DHT22;8445;51.270;9.434;2023-10-19T09:00:24;13.20;79.80
16663;DHT22;8445;51.270;9.434;2023-10-19T09:02:51;13.30;79.90
16663;DHT22;8445;51.270;9.434;2023-10-19T09:05:19;13.30;79.90
16663;DHT22;8445;51.270;9.434;2023-10-19T09:07:54;13.40;79.70
16663;DHT22;8445;51.270;9.434;2023-10-19T09:10:25;13.50;79.70
16663;DHT22;8445;51.270;9.434;2023-10-19T09:13:07;13.60;79.70
16663;DHT22;8445;51.270;9.434;2023-10-19T09:15:39;13.60;79.60
16663;DHT22;8445;51.270;9.434;2023-10-19T09:18:14;13.70;79.50
16663;DHT22;8445;51.270;9.434;2023-10-19T09:20:47;13.80;79.60
16663;DHT22;8445;51.270;9.434;2023-10-19T09:23:27;13.90;79.60
16663;DHT22;8445;51.270;9.434;2023-10-19T09:25:57;14.00;79.50
16663;DHT22;8445;51.270;9.434;2023-10-19T09:28:24;14.10;79.40
16663;DHT22;8445;51.270;9.434;2023-10-19T09:30:51;14.30;79.20
16663;DHT22;8445;51.270;9.434;2023-10-19T09:33:18;14.30;79.00
16663;DHT22;8445;51.270;9.434;2023-10-19T09:35:48;14.30;78.90
16663;DHT22;8445;51.270;9.434;2023-10-19T09:38:16;14.40;78.80
16663;DHT22;8445;51.270;9.434;2023-10-19T09:40:51;14.40;78.70
16663;DHT22;8445;51.270;9.434;2023-10-19T09:45:53;14.30;78.30
16663;DHT22;8445;51.270;9.434;2023-10-19T09:48:24;14.30;78.20
16663;DHT22;8445;51.270;9.434;2023-10-19T09:50:53;14.20;78.20
16663;DHT22;8445;51.270;9.434;2023-10-19T09:53:25;14.10;78.20
16663;DHT22;8445;51.270;9.434;2023-10-19T09:55:58;14.00;78.40
16663;DHT22;8445;51.270;9.434;2023-10-19T09:58:33;13.90;78.60
16663;DHT22;8445;51.270;9.434;2023-10-19T10:01:03;13.90;78.90
16663;DHT22;8445;51.270;9.434;2023-10-19T10:06:16;13.80;79.40
16663;DHT22;8445;51.270;9.434;2023-10-19T10:08:52;13.90;79.50
16663;DHT22;8445;51.270;9.434;2023-10-19T10:11:24;13.90;79.70
16663;DHT22;8445;51.270;9.434;2023-10-19T10:13:53;14.00;79.80
16663;DHT22;8445;51.270;9.434;2023-10-19T10:16:28;14.20;79.80
16663;DHT22;8445;51.270;9.434;2023-10-19T10:18:56;14.40;79.70
16663;DHT22;8445;51.270;9.434;2023-10-19T10:21:28;14.50;79.50
16663;DHT22;8445;51.270;9.434;2023-10-19T10:23:57;14.60;79.30
16663;DHT22;8445;51.270;9.434;2023-10-19T10:26:26;14.70;79.10
16663;DHT22;8445;51.270;9.434;2023-10-19T10:29:14;14.80;79.00
16663;DHT22;8445;51.270;9.434;2023-10-19T10:31:47;15.00;78.70
16663;DHT22;8445;51.270;9.434;2023-10-19T10:37:06;15.00;78.40
16663;DHT22;8445;51.270;9.434;2023-10-19T10:39:38;15.10;78.30
16663;DHT22;8445;51.270;9.434;2023-10-19T10:42:08;15.10;78.20
16663;DHT22;8445;51.270;9.434;2023-10-19T10:44:45;15.10;78.10
16663;DHT22;8445;51.270;9.434;2023-10-19T10:47:16;15.00;77.90
16663;DHT22;8445;51.270;9.434;2023-10-19T10:49:54;15.00;78.00
16663;DHT22;8445;51.270;9.434;2023-10-19T10:52:33;14.90;78.10
16663;DHT22;8445;51.270;9.434;2023-10-19T10:55:11;14.90;78.30
16663;DHT22;8445;51.270;9.434;2023-10-19T10:57:41;14.90;78.40
16663;DHT22;8445;51.270;9.434;2023-10-19T11:00:12;14.90;78.50
16663;DHT22;8445;51.270;9.434;2023-10-19T11:02:45;15.00;78.70
16663;DHT22;8445;51.270;9.434;2023-10-19T11:05:16;15.00;78.80
16663;DHT22;8445;51.270;9.434;2023-10-19T11:08:09;15.20;78.90
16663;DHT22;8445;51.270;9.434;2023-10-19T11:10:42;15.40;78.90
16663;DHT22;8445;51.270;9.434;2023-10-19T11:13:13;15.50;78.70
16663;DHT22;8445;51.270;9.434;2023-10-19T11:15:51;15.60;78.60
16663;DHT22;8445;51.270;9.434;2023-10-19T11:18:41;15.70;78.60
16663;DHT22;8445;51.270;9.434;2023-10-19T11:21:12;15.80;78.50
16663;DHT22;8445;51.270;9.434;2023-10-19T11:26:13;16.00;78.20
16663;DHT22;8445;51.270;9.434;2023-10-19T11:28:42;16.10;78.00
16663;DHT22;8445;51.270;9.434;2023-10-19T11:31:18;16.20;77.90
16663;DHT22;8445;51.270;9.434;2023-10-19T11:33:46;16.20;78.00
16663;DHT22;8445;51.270;9.434;2023-10-19T11:36:16;16.30;77.80
16663;DHT22;8445;51.270;9.434;2023-10-19T11:38:45;16.40;77.70
16663;DHT22;8445;51.270;9.434;2023-10-19T11:41:13;16.40;77.80
16663;DHT22;8445;51.270;9.434;2023-10-19T11:43:41;16.40;77.80
16663;DHT22;8445;51.270;9.434;2023-10-19T11:46:09;16.50;77.80
16663;DHT22;8445;51.270;9.434;2023-10-19T11:48:37;16.50;77.80
16663;DHT22;8445;51.270;9.434;2023-10-19T11:51:06;16.60;77.80
16663;DHT22;8445;51.270;9.434;2023-10-19T11:53:34;16.70;77.80
16663;DHT22;8445;51.270;9.434;2023-10-19T11:56:12;16.80;77.80
16663;DHT22;8445;51.270;9.434;2023-10-19T11:58:39;16.90;77.80
16663;DHT22;8445;51.270;9.434;2023-10-19T12:01:08;17.00;77.80
16663;DHT22;8445;51.270;9.434;2023-10-19T12:03:38;17.30;77.90
16663;DHT22;8445;51.270;9.434;2023-10-19T12:06:06;17.60;77.60
16663;DHT22;8445;51.270;9.434;2023-10-19T12:08:37;18.00;77.00
16663;DHT22;8445;51.270;9.434;2023-10-19T12:11:05;18.20;76.10
16663;DHT22;8445;51.270;9.434;2023-10-19T12:13:41;18.30;75.30
16663;DHT22;8445;51.270;9.434;2023-10-19T12:16:09;18.40;75.00
16663;DHT22;8445;51.270;9.434;2023-10-19T12:18:39;18.60;74.70
16663;DHT22;8445;51.270;9.434;2023-10-19T12:21:05;18.70;74.60
16663;DHT22;8445;51.270;9.434;2023-10-19T12:23:38;18.80;74.70
16663;DHT22;8445;51.270;9.434;2023-10-19T12:26:06;19.00;74.50
16663;DHT22;8445;51.270;9.434;2023-10-19T12:28:37;19.20;74.10
16663;DHT22;8445;51.270;9.434;2023-10-19T12:31:04;19.20;73.50
16663;DHT22;8445;51.270;9.434;2023-10-19T12:33:37;19.30;73.20
16663;DHT22;8445;51.270;9.434;2023-10-19T12:36:07;19.30;72.60
16663;DHT22;8445;51.270;9.434;2023-10-19T12:38:45;19.30;72.50
16663;DHT22;8445;51.270;9.434;2023-10-19T12:41:11;19.20;72.20
16663;DHT22;8445;51.270;9.434;2023-10-19T12:43:37;19.20;72.40
16663;DHT22;8445;51.270;9.434;2023-10-19T12:46:03;19.20;72.10
16663;DHT22;8445;51.270;9.434;2023-10-19T12:48:29;19.20;72.10
16663;DHT22;8445;51.270;9.434;2023-10-19T12:50:59;19.10;72.20
16663;DHT22;8445;51.270;9.434;2023-10-19T12:53:27;19.00;72.20
16663;DHT22;8445;51.270;9.434;2023-10-19T12:55:53;18.90;72.20
16663;DHT22;8445;51.270;9.434;2023-10-19T12:58:19;18.80;72.40
16663;DHT22;8445;51.270;9.434;2023-10-19T13:00:46;18.70;72.60
16663;DHT22;8445;51.270;9.434;2023-10-19T13:03:15;18.60;72.70
16663;DHT22;8445;51.270;9.434;2023-10-19T13:05:42;18.60;72.80
16663;DHT22;8445;51.270;9.434;2023-10-19T13:08:12;18.60;72.70
16663;DHT22;8445;51.270;9.434;2023-10-19T13:10:41;18.60;72.70
16663;DHT22;8445;51.270;9.434;2023-10-19T13:13:14;18.70;72.80
16663;DHT22;8445;51.270;9.434;2023-10-19T13:15:42;18.70;72.90
16663;DHT22;8445;51.270;9.434;2023-10-19T13:18:11;18.70;72.90
16663;DHT22;8445;51.270;9.434;2023-10-19T13:20:53;18.70;72.90
16663;DHT22;8445;51.270;9.434;2023-10-19T13:23:20;18.70;72.90
16663;DHT22;8445;51.270;9.434;2023-10-19T13:25:50;18.80;72.70
16663;DHT22;8445;51.270;9.434;2023-10-19T13:28:20;18.80;72.80
16663;DHT22;8445;51.270;9.434;2023-10-19T13:30:52;18.90;72.60
16663;DHT22;8445;51.270;9.434;2023-10-19T13:33:19;19.00;72.50
16663;DHT22;8445;51.270;9.434;2023-10-19T13:35:47;19.10;72.50
16663;DHT22;8445;51.270;9.434;2023-10-19T13:38:14;19.30;72.40
16663;DHT22;8445;51.270;9.434;2023-10-19T13:40:43;19.40;71.70
16663;DHT22;8445;51.270;9.434;2023-10-19T13:43:11;19.40;71.40
16663;DHT22;8445;51.270;9.434;2023-10-19T13:45:44;19.50;71.20
16663;DHT22;8445;51.270;9.434;2023-10-19T13:48:12;19.40;70.80
16663;DHT22;8445;51.270;9.434;2023-10-19T13:50:44;19.40;70.70
16663;DHT22;8445;51.270;9.434;2023-10-19T13:53:14;19.40;70.80
16663;DHT22;8445;51.270;9.434;2023-10-19T13:55:42;19.40;70.70
16663;DHT22;8445;51.270;9.434;2023-10-19T13:58:08;19.50;70.80
16663;DHT22;8445;51.270;9.434;2023-10-19T14:00:35;19.50;70.50
16663;DHT22;8445;51.270;9.434;2023-10-19T14:03:09;19.40;70.30
16663;DHT22;8445;51.270;9.434;2023-10-19T14:05:42;19.40;70.30
16663;DHT22;8445;51.270;9.434;2023-10-19T14:08:14;19.30;70.00
16663;DHT22;8445;51.270;9.434;2023-10-19T14:10:44;19.30;70.10
16663;DHT22;8445;51.270;9.434;2023-10-19T14:13:11;19.20;70.10
16663;DHT22;8445;51.270;9.434;2023-10-19T14:15:40;19.20;70.00
16663;DHT22;8445;51.270;9.434;2023-10-19T14:18:10;19.10;70.20
16663;DHT22;8445;51.270;9.434;2023-10-19T14:20:39;19.00;70.20
16663;DHT22;8445;51.270;9.434;2023-10-19T14:23:06;19.00;70.00
16663;DHT22;8445;51.270;9.434;2023-10-19T14:25:36;18.90;70.10
16663;DHT22;8445;51.270;9.434;2023-10-19T14:28:05;18.70;70.20
16663;DHT22;8445;51.270;9.434;2023-10-19T14:30:35;18.60;70.50
16663;DHT22;8445;51.270;9.434;2023-10-19T14:33:02;18.50;70.70
16663;DHT22;8445;51.270;9.434;2023-10-19T14:35:35;18.40;70.90
16663;DHT22;8445;51.270;9.434;2023-10-19T14:38:05;18.30;71.00
16663;DHT22;8445;51.270;9.434;2023-10-19T14:40:38;18.20;71.10
16663;DHT22;8445;51.270;9.434;2023-10-19T14:43:10;18.20;71.20
16663;DHT22;8445;51.270;9.434;2023-10-19T14:45:36;18.10;71.30
16663;DHT22;8445;51.270;9.434;2023-10-19T14:48:02;18.00;71.40
16663;DHT22;8445;51.270;9.434;2023-10-19T14:50:30;18.00;71.50
16663;DHT22;8445;51.270;9.434;2023-10-19T14:52:56;17.80;71.50
16663;DHT22;8445;51.270;9.434;2023-10-19T14:55:44;17.80;71.70
16663;DHT22;8445;51.270;9.434;2023-10-19T14:58:16;17.60;71.90
16663;DHT22;8445;51.270;9.434;2023-10-19T15:00:45;17.50;72.00
16663;DHT22;8445;51.270;9.434;2023-10-19T15:03:15;17.50;72.20
16663;DHT22;8445;51.270;9.434;2023-10-19T15:05:42;17.40;72.40
16663;DHT22;8445;51.270;9.434;2023-10-19T15:08:08;17.40;72.60
16663;DHT22;8445;51.270;9.434;2023-10-19T15:10:40;17.30;72.70
16663;DHT22;8445;51.270;9.434;2023-10-19T15:13:07;17.30;73.00
16663;DHT22;8445;51.270;9.434;2023-10-19T15:15:34;17.20;73.20
16663;DHT22;8445;51.270;9.434;2023-10-19T15:18:00;17.20;73.20
16663;DHT22;8445;51.270;9.434;2023-10-19T15:20:27;17.20;73.30
16663;DHT22;8445;51.270;9.434;2023-10-19T15:22:55;17.10;73.60
16663;DHT22;8445;51.270;9.434;2023-10-19T15:25:23;17.00;73.60
16663;DHT22;8445;51.270;9.434;2023-10-19T15:27:52;17.00;73.70
16663;DHT22;8445;51.270;9.434;2023-10-19T15:30:20;16.90;73.90
16663;DHT22;8445;51.270;9.434;2023-10-19T15:32:51;16.90;74.20
16663;DHT22;8445;51.270;9.434;2023-10-19T15:35:21;16.80;74.20
16663;DHT22;8445;51.270;9.434;2023-10-19T15:37:52;16.80;74.20
16663;DHT22;8445;51.270;9.434;2023-10-19T15:40:22;16.80;74.30
16663;DHT22;8445;51.270;9.434;2023-10-19T15:42:49;16.70;74.40
16663;DHT22;8445;51.270;9.434;2023-10-19T15:45:28;16.70;74.40
16663;DHT22;8445;51.270;9.434;2023-10-19T15:47:58;16.70;74.40
16663;DHT22;8445;51.270;9.434;2023-10-19T15:50:24;16.60;74.50
16663;DHT22;8445;51.270;9.434;2023-10-19T15:52:56;16.60;74.50
16663;DHT22;8445;51.270;9.434;2023-10-19T15:55:34;16.60;74.60
16663;DHT22;8445;51.270;9.434;2023-10-19T15:58:08;16.50;74.60
16663;DHT22;8445;51.270;9.434;2023-10-19T16:00:42;16.50;74.70
16663;DHT22;8445;51.270;9.434;2023-10-19T16:03:13;16.40;74.70
16663;DHT22;8445;51.270;9.434;2023-10-19T16:05:39;16.40;74.80
16663;DHT22;8445;51.270;9.434;2023-10-19T16:08:05;16.40;75.00
16663;DHT22;8445;51.270;9.434;2023-10-19T16:10:31;16.30;75.00
16663;DHT22;8445;51.270;9.434;2023-10-19T16:12:57;16.20;75.10
16663;DHT22;8445;51.270;9.434;2023-10-19T16:15:23;16.20;75.30
16663;DHT22;8445;51.270;9.434;2023-10-19T16:17:49;16.10;75.60
16663;DHT22;8445;51.270;9.434;2023-10-19T16:20:16;16.10;75.60
16663;DHT22;8445;51.270;9.434;2023-10-19T16:22:42;16.00;75.70
16663;DHT22;8445;51.270;9.434;2023-10-19T16:25:09;16.00;75.90